Aspen Hill, Maryland
Current Conditions -  °F | °C
As of 8:35 AM on Monday 24 Nov 2014 (Local Time) from KGAI Reporting Station
Broken Clouds Broken Clouds  
Wind Chill: 63°   Ceiling: 2300
Heat Index: 63°   Visibility: 10mi
Dew Point: 57°   Wind: 13mph
Humidity: 82%   Direction: 190°S
Pressure: 29.71"   Gusts: NA
Location:  39.08°N, 77.09°W
Report Text: KGAI 241335Z 19011KT 170V230 10SM BKN023 17/14 A2971 RMK AO1
Loading
Personal Weather Stations






























Interactive Weather Map New forecast layout! Learn more

10-Day Weather Forecast

Advertisements
Track Severe Weather on mobile